sensor_id;sensor_type;location;lat;lon;timestamp;P1;durP1;ratioP1;P2;durP2;ratioP2
84820;SDS011;75463;50.988;11.332;2024-01-06T00:01:24;15.20;;;10.00;;
84820;SDS011;75463;50.988;11.332;2024-01-06T00:03:50;17.90;;;9.80;;
84820;SDS011;75463;50.988;11.332;2024-01-06T00:06:15;17.00;;;10.35;;
84820;SDS011;75463;50.988;11.332;2024-01-06T00:08:40;13.82;;;9.43;;
84820;SDS011;75463;50.988;11.332;2024-01-06T00:11:06;16.50;;;10.35;;
84820;SDS011;75463;50.988;11.332;2024-01-06T00:13:31;19.50;;;10.23;;
84820;SDS011;75463;50.988;11.332;2024-01-06T00:15:56;13.93;;;9.30;;
84820;SDS011;75463;50.988;11.332;2024-01-06T00:18:22;14.65;;;8.48;;
84820;SDS011;75463;50.988;11.332;2024-01-06T00:20:47;19.65;;;10.52;;
84820;SDS011;75463;50.988;11.332;2024-01-06T00:23:13;21.65;;;10.30;;
84820;SDS011;75463;50.988;11.332;2024-01-06T00:25:38;21.95;;;10.98;;
84820;SDS011;75463;50.988;11.332;2024-01-06T00:28:03;21.77;;;10.90;;
84820;SDS011;75463;50.988;11.332;2024-01-06T00:30:29;16.70;;;8.60;;
84820;SDS011;75463;50.988;11.332;2024-01-06T00:32:54;13.07;;;6.38;;
84820;SDS011;75463;50.988;11.332;2024-01-06T00:35:20;10.18;;;5.93;;
84820;SDS011;75463;50.988;11.332;2024-01-06T00:37:45;12.17;;;6.20;;
84820;SDS011;75463;50.988;11.332;2024-01-06T00:40:10;11.15;;;6.35;;
84820;SDS011;75463;50.988;11.332;2024-01-06T00:42:36;9.82;;;5.60;;
84820;SDS011;75463;50.988;11.332;2024-01-06T00:45:01;9.05;;;5.20;;
84820;SDS011;75463;50.988;11.332;2024-01-06T00:47:26;13.85;;;6.70;;
84820;SDS011;75463;50.988;11.332;2024-01-06T00:49:52;12.85;;;6.38;;
84820;SDS011;75463;50.988;11.332;2024-01-06T00:52:17;15.18;;;7.78;;
84820;SDS011;75463;50.988;11.332;2024-01-06T00:54:42;13.20;;;7.50;;
84820;SDS011;75463;50.988;11.332;2024-01-06T00:57:08;17.30;;;8.85;;
84820;SDS011;75463;50.988;11.332;2024-01-06T00:59:33;13.35;;;8.32;;
84820;SDS011;75463;50.988;11.332;2024-01-06T01:01:58;15.32;;;8.98;;
84820;SDS011;75463;50.988;11.332;2024-01-06T01:04:24;18.15;;;8.95;;
84820;SDS011;75463;50.988;11.332;2024-01-06T01:06:49;15.80;;;7.63;;
84820;SDS011;75463;50.988;11.332;2024-01-06T01:09:14;12.20;;;7.95;;
84820;SDS011;75463;50.988;11.332;2024-01-06T01:11:40;14.30;;;8.05;;
84820;SDS011;75463;50.988;11.332;2024-01-06T01:14:06;16.00;;;9.00;;
84820;SDS011;75463;50.988;11.332;2024-01-06T01:16:31;15.73;;;8.80;;
84820;SDS011;75463;50.988;11.332;2024-01-06T01:18:57;15.60;;;8.65;;
84820;SDS011;75463;50.988;11.332;2024-01-06T01:21:23;12.93;;;7.38;;
84820;SDS011;75463;50.988;11.332;2024-01-06T01:23:48;11.02;;;6.57;;
84820;SDS011;75463;50.988;11.332;2024-01-06T01:26:14;10.23;;;5.55;;
84820;SDS011;75463;50.988;11.332;2024-01-06T01:28:39;10.93;;;5.72;;
84820;SDS011;75463;50.988;11.332;2024-01-06T01:31:04;8.45;;;6.35;;
84820;SDS011;75463;50.988;11.332;2024-01-06T01:33:30;8.85;;;4.80;;
84820;SDS011;75463;50.988;11.332;2024-01-06T01:35:55;10.57;;;6.60;;
84820;SDS011;75463;50.988;11.332;2024-01-06T01:38:20;13.23;;;7.03;;
84820;SDS011;75463;50.988;11.332;2024-01-06T01:40:46;18.60;;;8.20;;
84820;SDS011;75463;50.988;11.332;2024-01-06T01:43:20;12.88;;;7.65;;
84820;SDS011;75463;50.988;11.332;2024-01-06T01:45:48;12.90;;;7.45;;
84820;SDS011;75463;50.988;11.332;2024-01-06T01:48:18;9.27;;;6.57;;
84820;SDS011;75463;50.988;11.332;2024-01-06T01:50:45;8.52;;;5.80;;
84820;SDS011;75463;50.988;11.332;2024-01-06T01:53:10;11.10;;;5.93;;
84820;SDS011;75463;50.988;11.332;2024-01-06T01:55:37;8.63;;;5.65;;
84820;SDS011;75463;50.988;11.332;2024-01-06T01:58:02;11.65;;;5.50;;
84820;SDS011;75463;50.988;11.332;2024-01-06T02:00:28;8.18;;;4.95;;
84820;SDS011;75463;50.988;11.332;2024-01-06T02:02:53;9.43;;;5.45;;
84820;SDS011;75463;50.988;11.332;2024-01-06T02:05:19;7.47;;;5.60;;
84820;SDS011;75463;50.988;11.332;2024-01-06T02:07:44;8.80;;;5.63;;
84820;SDS011;75463;50.988;11.332;2024-01-06T02:10:10;11.48;;;6.15;;
84820;SDS011;75463;50.988;11.332;2024-01-06T02:12:35;16.23;;;9.68;;
84820;SDS011;75463;50.988;11.332;2024-01-06T02:15:00;12.60;;;8.07;;
84820;SDS011;75463;50.988;11.332;2024-01-06T02:17:26;14.32;;;8.32;;
84820;SDS011;75463;50.988;11.332;2024-01-06T02:19:51;11.90;;;7.93;;
84820;SDS011;75463;50.988;11.332;2024-01-06T02:22:16;17.55;;;8.95;;
84820;SDS011;75463;50.988;11.332;2024-01-06T02:24:42;14.15;;;8.48;;
84820;SDS011;75463;50.988;11.332;2024-01-06T02:27:07;8.90;;;6.78;;
84820;SDS011;75463;50.988;11.332;2024-01-06T02:29:32;11.43;;;5.47;;
84820;SDS011;75463;50.988;11.332;2024-01-06T02:31:58;8.50;;;5.90;;
84820;SDS011;75463;50.988;11.332;2024-01-06T02:34:23;9.80;;;6.32;;
84820;SDS011;75463;50.988;11.332;2024-01-06T02:36:49;12.30;;;5.75;;
84820;SDS011;75463;50.988;11.332;2024-01-06T02:39:14;9.30;;;5.53;;
84820;SDS011;75463;50.988;11.332;2024-01-06T02:41:39;6.22;;;4.93;;
84820;SDS011;75463;50.988;11.332;2024-01-06T02:44:05;12.38;;;5.22;;
84820;SDS011;75463;50.988;11.332;2024-01-06T02:46:30;7.32;;;4.28;;
84820;SDS011;75463;50.988;11.332;2024-01-06T02:48:55;10.82;;;3.95;;
84820;SDS011;75463;50.988;11.332;2024-01-06T02:51:21;8.35;;;3.60;;
84820;SDS011;75463;50.988;11.332;2024-01-06T02:53:46;8.45;;;4.28;;
84820;SDS011;75463;50.988;11.332;2024-01-06T02:56:11;6.93;;;4.10;;
84820;SDS011;75463;50.988;11.332;2024-01-06T02:58:37;5.80;;;3.40;;
84820;SDS011;75463;50.988;11.332;2024-01-06T03:01:03;7.20;;;3.40;;
84820;SDS011;75463;50.988;11.332;2024-01-06T03:03:28;6.03;;;3.85;;
84820;SDS011;75463;50.988;11.332;2024-01-06T03:05:53;6.85;;;3.72;;
84820;SDS011;75463;50.988;11.332;2024-01-06T03:08:19;6.00;;;3.90;;
84820;SDS011;75463;50.988;11.332;2024-01-06T03:10:44;8.35;;;3.58;;
84820;SDS011;75463;50.988;11.332;2024-01-06T03:13:09;5.05;;;3.65;;
84820;SDS011;75463;50.988;11.332;2024-01-06T03:15:35;5.20;;;3.35;;
84820;SDS011;75463;50.988;11.332;2024-01-06T03:18:00;3.88;;;2.50;;
84820;SDS011;75463;50.988;11.332;2024-01-06T03:20:25;9.38;;;3.55;;
84820;SDS011;75463;50.988;11.332;2024-01-06T03:22:50;5.03;;;2.97;;
84820;SDS011;75463;50.988;11.332;2024-01-06T03:25:16;4.15;;;2.30;;
84820;SDS011;75463;50.988;11.332;2024-01-06T03:27:41;4.72;;;2.42;;
84820;SDS011;75463;50.988;11.332;2024-01-06T03:30:07;7.32;;;2.92;;
84820;SDS011;75463;50.988;11.332;2024-01-06T03:32:32;4.93;;;2.72;;
84820;SDS011;75463;50.988;11.332;2024-01-06T03:34:57;5.07;;;2.70;;
84820;SDS011;75463;50.988;11.332;2024-01-06T03:37:23;5.95;;;2.70;;
84820;SDS011;75463;50.988;11.332;2024-01-06T03:39:49;4.78;;;2.42;;
84820;SDS011;75463;50.988;11.332;2024-01-06T03:42:14;5.63;;;2.38;;
84820;SDS011;75463;50.988;11.332;2024-01-06T03:44:40;7.05;;;2.75;;
84820;SDS011;75463;50.988;11.332;2024-01-06T03:47:05;5.70;;;2.58;;
84820;SDS011;75463;50.988;11.332;2024-01-06T03:49:30;4.97;;;2.65;;
84820;SDS011;75463;50.988;11.332;2024-01-06T03:51:56;3.78;;;2.58;;
84820;SDS011;75463;50.988;11.332;2024-01-06T03:54:21;6.22;;;2.67;;
84820;SDS011;75463;50.988;11.332;2024-01-06T03:56:47;3.25;;;2.88;;
84820;SDS011;75463;50.988;11.332;2024-01-06T03:59:12;4.40;;;2.65;;
84820;SDS011;75463;50.988;11.332;2024-01-06T04:01:38;9.57;;;2.65;;
84820;SDS011;75463;50.988;11.332;2024-01-06T04:04:03;4.63;;;2.90;;
84820;SDS011;75463;50.988;11.332;2024-01-06T04:06:29;5.30;;;2.63;;
84820;SDS011;75463;50.988;11.332;2024-01-06T04:08:54;4.43;;;2.53;;
84820;SDS011;75463;50.988;11.332;2024-01-06T04:11:20;6.45;;;2.88;;
84820;SDS011;75463;50.988;11.332;2024-01-06T04:13:45;6.10;;;3.35;;
84820;SDS011;75463;50.988;11.332;2024-01-06T04:16:11;4.35;;;3.00;;
84820;SDS011;75463;50.988;11.332;2024-01-06T04:18:36;4.90;;;2.50;;
84820;SDS011;75463;50.988;11.332;2024-01-06T04:21:02;8.65;;;3.00;;
84820;SDS011;75463;50.988;11.332;2024-01-06T04:23:27;10.20;;;4.45;;
84820;SDS011;75463;50.988;11.332;2024-01-06T04:25:53;6.03;;;3.97;;
84820;SDS011;75463;50.988;11.332;2024-01-06T04:28:18;7.30;;;3.80;;
84820;SDS011;75463;50.988;11.332;2024-01-06T04:30:43;7.45;;;3.55;;
84820;SDS011;75463;50.988;11.332;2024-01-06T04:33:09;5.83;;;3.43;;
84820;SDS011;75463;50.988;11.332;2024-01-06T04:35:34;4.57;;;2.85;;
84820;SDS011;75463;50.988;11.332;2024-01-06T04:37:59;5.07;;;3.70;;
84820;SDS011;75463;50.988;11.332;2024-01-06T04:40:24;4.82;;;4.10;;
84820;SDS011;75463;50.988;11.332;2024-01-06T04:42:50;4.40;;;3.37;;
84820;SDS011;75463;50.988;11.332;2024-01-06T04:45:15;7.35;;;3.80;;
84820;SDS011;75463;50.988;11.332;2024-01-06T04:47:41;4.57;;;3.22;;
84820;SDS011;75463;50.988;11.332;2024-01-06T04:50:06;5.05;;;2.97;;
84820;SDS011;75463;50.988;11.332;2024-01-06T04:52:32;5.55;;;4.10;;
84820;SDS011;75463;50.988;11.332;2024-01-06T04:54:57;6.07;;;3.85;;
84820;SDS011;75463;50.988;11.332;2024-01-06T04:57:22;4.93;;;3.47;;
84820;SDS011;75463;50.988;11.332;2024-01-06T04:59:48;5.07;;;3.33;;
84820;SDS011;75463;50.988;11.332;2024-01-06T05:02:13;5.57;;;3.40;;
84820;SDS011;75463;50.988;11.332;2024-01-06T05:04:38;6.03;;;3.50;;
84820;SDS011;75463;50.988;11.332;2024-01-06T05:07:04;10.25;;;4.70;;
84820;SDS011;75463;50.988;11.332;2024-01-06T05:09:29;7.07;;;3.38;;
84820;SDS011;75463;50.988;11.332;2024-01-06T05:11:55;5.17;;;3.27;;
84820;SDS011;75463;50.988;11.332;2024-01-06T05:14:20;4.73;;;3.13;;
84820;SDS011;75463;50.988;11.332;2024-01-06T05:16:45;6.40;;;3.63;;
84820;SDS011;75463;50.988;11.332;2024-01-06T05:19:11;4.82;;;3.35;;
84820;SDS011;75463;50.988;11.332;2024-01-06T05:21:36;5.45;;;3.72;;
84820;SDS011;75463;50.988;11.332;2024-01-06T05:24:01;6.13;;;3.50;;
84820;SDS011;75463;50.988;11.332;2024-01-06T05:26:28;5.32;;;2.97;;
84820;SDS011;75463;50.988;11.332;2024-01-06T05:28:53;9.57;;;3.50;;
84820;SDS011;75463;50.988;11.332;2024-01-06T05:31:18;4.97;;;2.92;;
84820;SDS011;75463;50.988;11.332;2024-01-06T05:33:44;7.03;;;3.00;;
84820;SDS011;75463;50.988;11.332;2024-01-06T05:36:09;6.57;;;3.33;;
84820;SDS011;75463;50.988;11.332;2024-01-06T05:38:36;6.93;;;3.72;;
84820;SDS011;75463;50.988;11.332;2024-01-06T05:41:01;8.07;;;3.38;;
84820;SDS011;75463;50.988;11.332;2024-01-06T05:43:27;4.65;;;3.45;;
84820;SDS011;75463;50.988;11.332;2024-01-06T05:45:52;6.50;;;3.78;;
84820;SDS011;75463;50.988;11.332;2024-01-06T05:48:17;4.82;;;2.83;;
84820;SDS011;75463;50.988;11.332;2024-01-06T05:50:43;6.55;;;3.25;;
84820;SDS011;75463;50.988;11.332;2024-01-06T05:53:08;8.15;;;3.58;;
84820;SDS011;75463;50.988;11.332;2024-01-06T05:55:34;8.25;;;4.00;;
84820;SDS011;75463;50.988;11.332;2024-01-06T05:57:59;4.82;;;3.13;;
84820;SDS011;75463;50.988;11.332;2024-01-06T06:00:25;5.82;;;2.80;;
84820;SDS011;75463;50.988;11.332;2024-01-06T06:02:51;5.22;;;3.55;;
84820;SDS011;75463;50.988;11.332;2024-01-06T06:05:16;4.90;;;2.90;;
84820;SDS011;75463;50.988;11.332;2024-01-06T06:07:41;5.90;;;3.30;;
84820;SDS011;75463;50.988;11.332;2024-01-06T06:10:08;8.73;;;3.78;;
84820;SDS011;75463;50.988;11.332;2024-01-06T06:12:34;4.43;;;3.17;;
84820;SDS011;75463;50.988;11.332;2024-01-06T06:14:59;3.78;;;2.85;;
84820;SDS011;75463;50.988;11.332;2024-01-06T06:17:25;5.03;;;3.17;;
84820;SDS011;75463;50.988;11.332;2024-01-06T06:19:50;6.13;;;3.57;;
84820;SDS011;75463;50.988;11.332;2024-01-06T06:22:16;7.20;;;4.20;;
84820;SDS011;75463;50.988;11.332;2024-01-06T06:24:41;7.40;;;4.40;;
84820;SDS011;75463;50.988;11.332;2024-01-06T06:27:06;9.48;;;4.07;;
84820;SDS011;75463;50.988;11.332;2024-01-06T06:29:32;5.13;;;4.53;;
84820;SDS011;75463;50.988;11.332;2024-01-06T06:31:57;10.02;;;6.38;;
84820;SDS011;75463;50.988;11.332;2024-01-06T06:34:23;8.95;;;4.97;;
84820;SDS011;75463;50.988;11.332;2024-01-06T06:36:48;9.50;;;7.93;;
84820;SDS011;75463;50.988;11.332;2024-01-06T06:39:13;11.13;;;5.82;;
84820;SDS011;75463;50.988;11.332;2024-01-06T06:41:39;19.00;;;17.08;;
84820;SDS011;75463;50.988;11.332;2024-01-06T06:44:04;30.57;;;27.27;;
84820;SDS011;75463;50.988;11.332;2024-01-06T06:46:29;16.50;;;11.80;;
84820;SDS011;75463;50.988;11.332;2024-01-06T06:48:55;32.60;;;23.88;;
84820;SDS011;75463;50.988;11.332;2024-01-06T06:51:20;20.10;;;16.03;;
84820;SDS011;75463;50.988;11.332;2024-01-06T06:53:49;14.68;;;10.43;;
84820;SDS011;75463;50.988;11.332;2024-01-06T06:56:15;12.25;;;9.45;;
84820;SDS011;75463;50.988;11.332;2024-01-06T06:58:42;13.10;;;11.38;;
84820;SDS011;75463;50.988;11.332;2024-01-06T07:01:07;15.20;;;11.85;;
84820;SDS011;75463;50.988;11.332;2024-01-06T07:03:32;14.30;;;12.15;;
84820;SDS011;75463;50.988;11.332;2024-01-06T07:05:58;16.17;;;14.07;;
84820;SDS011;75463;50.988;11.332;2024-01-06T07:08:23;12.20;;;10.13;;
84820;SDS011;75463;50.988;11.332;2024-01-06T07:10:48;14.70;;;12.00;;
84820;SDS011;75463;50.988;11.332;2024-01-06T07:13:14;10.90;;;7.35;;
84820;SDS011;75463;50.988;11.332;2024-01-06T07:15:39;6.95;;;4.43;;
84820;SDS011;75463;50.988;11.332;2024-01-06T07:18:04;6.95;;;3.80;;
84820;SDS011;75463;50.988;11.332;2024-01-06T07:20:29;5.90;;;4.40;;
84820;SDS011;75463;50.988;11.332;2024-01-06T07:22:55;8.02;;;4.80;;
84820;SDS011;75463;50.988;11.332;2024-01-06T07:25:20;6.40;;;4.90;;
84820;SDS011;75463;50.988;11.332;2024-01-06T07:27:45;5.57;;;4.07;;
84820;SDS011;75463;50.988;11.332;2024-01-06T07:30:11;5.90;;;3.80;;
84820;SDS011;75463;50.988;11.332;2024-01-06T07:32:36;6.72;;;3.83;;
84820;SDS011;75463;50.988;11.332;2024-01-06T07:35:02;4.40;;;3.50;;
84820;SDS011;75463;50.988;11.332;2024-01-06T07:37:27;5.65;;;4.32;;
84820;SDS011;75463;50.988;11.332;2024-01-06T07:39:52;7.88;;;4.22;;
84820;SDS011;75463;50.988;11.332;2024-01-06T07:42:18;6.68;;;5.35;;
84820;SDS011;75463;50.988;11.332;2024-01-06T07:44:43;4.87;;;4.03;;
84820;SDS011;75463;50.988;11.332;2024-01-06T07:47:09;7.45;;;4.43;;
84820;SDS011;75463;50.988;11.332;2024-01-06T07:49:34;7.75;;;3.92;;
84820;SDS011;75463;50.988;11.332;2024-01-06T07:52:00;5.32;;;3.80;;
84820;SDS011;75463;50.988;11.332;2024-01-06T07:54:25;6.15;;;4.30;;
84820;SDS011;75463;50.988;11.332;2024-01-06T07:56:50;4.40;;;3.92;;
84820;SDS011;75463;50.988;11.332;2024-01-06T07:59:16;5.80;;;3.53;;
84820;SDS011;75463;50.988;11.332;2024-01-06T08:01:41;6.33;;;3.53;;
84820;SDS011;75463;50.988;11.332;2024-01-06T08:04:08;5.60;;;4.00;;
84820;SDS011;75463;50.988;11.332;2024-01-06T08:06:33;5.88;;;3.88;;
84820;SDS011;75463;50.988;11.332;2024-01-06T08:08:59;5.95;;;4.05;;
84820;SDS011;75463;50.988;11.332;2024-01-06T08:11:24;4.93;;;3.47;;
84820;SDS011;75463;50.988;11.332;2024-01-06T08:13:49;7.68;;;4.40;;
84820;SDS011;75463;50.988;11.332;2024-01-06T08:16:14;6.23;;;3.87;;
84820;SDS011;75463;50.988;11.332;2024-01-06T08:18:40;9.27;;;4.47;;
84820;SDS011;75463;50.988;11.332;2024-01-06T08:21:05;8.35;;;4.03;;
84820;SDS011;75463;50.988;11.332;2024-01-06T08:23:31;7.88;;;4.07;;
84820;SDS011;75463;50.988;11.332;2024-01-06T08:25:56;9.27;;;4.30;;
84820;SDS011;75463;50.988;11.332;2024-01-06T08:28:22;7.05;;;3.90;;
84820;SDS011;75463;50.988;11.332;2024-01-06T08:30:48;8.88;;;4.20;;
84820;SDS011;75463;50.988;11.332;2024-01-06T08:33:14;6.88;;;4.68;;
84820;SDS011;75463;50.988;11.332;2024-01-06T08:35:39;8.73;;;4.38;;
84820;SDS011;75463;50.988;11.332;2024-01-06T08:38:08;6.40;;;4.32;;
84820;SDS011;75463;50.988;11.332;2024-01-06T08:40:33;8.80;;;4.43;;
84820;SDS011;75463;50.988;11.332;2024-01-06T08:42:59;5.50;;;4.70;;
84820;SDS011;75463;50.988;11.332;2024-01-06T08:45:24;6.03;;;4.38;;
84820;SDS011;75463;50.988;11.332;2024-01-06T08:47:50;5.82;;;3.35;;
84820;SDS011;75463;50.988;11.332;2024-01-06T08:50:15;5.87;;;4.50;;
84820;SDS011;75463;50.988;11.332;2024-01-06T08:52:40;7.57;;;3.80;;
84820;SDS011;75463;50.988;11.332;2024-01-06T08:55:06;8.17;;;3.63;;
84820;SDS011;75463;50.988;11.332;2024-01-06T08:57:31;6.35;;;3.58;;
84820;SDS011;75463;50.988;11.332;2024-01-06T08:59:57;6.45;;;4.00;;
84820;SDS011;75463;50.988;11.332;2024-01-06T09:02:22;7.00;;;4.57;;
84820;SDS011;75463;50.988;11.332;2024-01-06T09:04:47;6.18;;;4.47;;
84820;SDS011;75463;50.988;11.332;2024-01-06T09:07:12;6.97;;;4.57;;
84820;SDS011;75463;50.988;11.332;2024-01-06T09:09:38;7.88;;;4.03;;
84820;SDS011;75463;50.988;11.332;2024-01-06T09:12:03;5.32;;;3.67;;
84820;SDS011;75463;50.988;11.332;2024-01-06T09:14:29;6.40;;;4.13;;
84820;SDS011;75463;50.988;11.332;2024-01-06T09:16:55;8.25;;;3.78;;
84820;SDS011;75463;50.988;11.332;2024-01-06T09:19:20;6.28;;;4.05;;
84820;SDS011;75463;50.988;11.332;2024-01-06T09:21:46;4.80;;;4.20;;
84820;SDS011;75463;50.988;11.332;2024-01-06T09:24:12;4.57;;;3.50;;
84820;SDS011;75463;50.988;11.332;2024-01-06T09:26:37;6.30;;;3.67;;
84820;SDS011;75463;50.988;11.332;2024-01-06T09:29:03;15.60;;;9.45;;
84820;SDS011;75463;50.988;11.332;2024-01-06T09:31:29;8.38;;;4.47;;
84820;SDS011;75463;50.988;11.332;2024-01-06T09:33:54;8.25;;;5.78;;
84820;SDS011;75463;50.988;11.332;2024-01-06T09:36:19;11.82;;;5.95;;
84820;SDS011;75463;50.988;11.332;2024-01-06T09:38:45;7.25;;;5.05;;
84820;SDS011;75463;50.988;11.332;2024-01-06T09:41:10;10.57;;;6.00;;
84820;SDS011;75463;50.988;11.332;2024-01-06T09:43:35;12.25;;;8.02;;
84820;SDS011;75463;50.988;11.332;2024-01-06T09:46:15;8.07;;;5.22;;
84820;SDS011;75463;50.988;11.332;2024-01-06T09:48:52;9.23;;;5.75;;
84820;SDS011;75463;50.988;11.332;2024-01-06T09:51:19;9.77;;;6.70;;
84820;SDS011;75463;50.988;11.332;2024-01-06T09:53:58;8.55;;;6.20;;
84820;SDS011;75463;50.988;11.332;2024-01-06T09:56:26;12.23;;;7.70;;
84820;SDS011;75463;50.988;11.332;2024-01-06T09:58:52;12.60;;;6.82;;
84820;SDS011;75463;50.988;11.332;2024-01-06T10:01:18;8.07;;;6.05;;
84820;SDS011;75463;50.988;11.332;2024-01-06T10:03:44;8.98;;;5.68;;
84820;SDS011;75463;50.988;11.332;2024-01-06T10:06:13;5.85;;;4.75;;
84820;SDS011;75463;50.988;11.332;2024-01-06T10:08:39;8.40;;;5.80;;
84820;SDS011;75463;50.988;11.332;2024-01-06T10:11:08;9.20;;;5.78;;
84820;SDS011;75463;50.988;11.332;2024-01-06T10:13:34;6.63;;;4.70;;
84820;SDS011;75463;50.988;11.332;2024-01-06T10:16:00;7.90;;;5.22;;
84820;SDS011;75463;50.988;11.332;2024-01-06T10:18:26;8.98;;;5.53;;
84820;SDS011;75463;50.988;11.332;2024-01-06T10:20:54;17.73;;;7.82;;
84820;SDS011;75463;50.988;11.332;2024-01-06T10:23:21;18.35;;;12.02;;
84820;SDS011;75463;50.988;11.332;2024-01-06T10:25:47;7.70;;;6.03;;
84820;SDS011;75463;50.988;11.332;2024-01-06T10:28:12;14.18;;;8.50;;
84820;SDS011;75463;50.988;11.332;2024-01-06T10:30:40;12.20;;;8.52;;
84820;SDS011;75463;50.988;11.332;2024-01-06T10:33:09;12.30;;;7.97;;
84820;SDS011;75463;50.988;11.332;2024-01-06T10:35:35;7.43;;;4.63;;
84820;SDS011;75463;50.988;11.332;2024-01-06T10:38:01;7.65;;;4.75;;
84820;SDS011;75463;50.988;11.332;2024-01-06T10:40:28;7.65;;;4.63;;
84820;SDS011;75463;50.988;11.332;2024-01-06T10:42:54;9.35;;;5.28;;
84820;SDS011;75463;50.988;11.332;2024-01-06T10:45:22;10.38;;;6.07;;
84820;SDS011;75463;50.988;11.332;2024-01-06T10:47:48;8.07;;;5.15;;
84820;SDS011;75463;50.988;11.332;2024-01-06T10:50:14;9.73;;;7.07;;
84820;SDS011;75463;50.988;11.332;2024-01-06T10:52:42;14.65;;;9.23;;
84820;SDS011;75463;50.988;11.332;2024-01-06T10:55:08;10.15;;;7.30;;
84820;SDS011;75463;50.988;11.332;2024-01-06T10:57:34;10.43;;;6.32;;
84820;SDS011;75463;50.988;11.332;2024-01-06T11:00:03;12.25;;;7.38;;
84820;SDS011;75463;50.988;11.332;2024-01-06T11:02:30;10.95;;;5.93;;
84820;SDS011;75463;50.988;11.332;2024-01-06T11:04:57;8.95;;;6.85;;
84820;SDS011;75463;50.988;11.332;2024-01-06T11:07:25;8.95;;;5.78;;
84820;SDS011;75463;50.988;11.332;2024-01-06T11:10:06;12.90;;;7.85;;
84820;SDS011;75463;50.988;11.332;2024-01-06T11:12:34;7.78;;;4.63;;
84820;SDS011;75463;50.988;11.332;2024-01-06T11:14:59;6.82;;;4.60;;
84820;SDS011;75463;50.988;11.332;2024-01-06T11:20:20;7.03;;;3.80;;
84820;SDS011;75463;50.988;11.332;2024-01-06T11:22:49;5.63;;;3.17;;
84820;SDS011;75463;50.988;11.332;2024-01-06T11:25:16;4.63;;;2.58;;
84820;SDS011;75463;50.988;11.332;2024-01-06T11:27:44;6.13;;;3.33;;
84820;SDS011;75463;50.988;11.332;2024-01-06T11:30:19;5.13;;;3.55;;
84820;SDS011;75463;50.988;11.332;2024-01-06T11:32:48;4.90;;;2.65;;
84820;SDS011;75463;50.988;11.332;2024-01-06T11:35:17;3.17;;;2.10;;
84820;SDS011;75463;50.988;11.332;2024-01-06T11:42:37;3.72;;;1.90;;
84820;SDS011;75463;50.988;11.332;2024-01-06T11:45:03;4.35;;;1.70;;
84820;SDS011;75463;50.988;11.332;2024-01-06T11:47:31;3.65;;;1.92;;
84820;SDS011;75463;50.988;11.332;2024-01-06T11:49:57;4.28;;;1.92;;
84820;SDS011;75463;50.988;11.332;2024-01-06T11:52:24;2.95;;;1.75;;
84820;SDS011;75463;50.988;11.332;2024-01-06T11:54:51;2.53;;;1.52;;
84820;SDS011;75463;50.988;11.332;2024-01-06T11:57:17;2.88;;;1.80;;
84820;SDS011;75463;50.988;11.332;2024-01-06T11:59:43;3.05;;;1.58;;
84820;SDS011;75463;50.988;11.332;2024-01-06T12:02:11;3.60;;;2.23;;
84820;SDS011;75463;50.988;11.332;2024-01-06T12:04:38;3.08;;;2.47;;
84820;SDS011;75463;50.988;11.332;2024-01-06T12:07:06;5.40;;;3.03;;
84820;SDS011;75463;50.988;11.332;2024-01-06T12:09:32;4.55;;;2.17;;
84820;SDS011;75463;50.988;11.332;2024-01-06T12:12:02;6.63;;;2.58;;
84820;SDS011;75463;50.988;11.332;2024-01-06T12:14:29;7.80;;;2.78;;
84820;SDS011;75463;50.988;11.332;2024-01-06T12:16:54;6.05;;;2.70;;
84820;SDS011;75463;50.988;11.332;2024-01-06T12:21:48;9.17;;;4.80;;
84820;SDS011;75463;50.988;11.332;2024-01-06T12:24:17;9.25;;;3.88;;
84820;SDS011;75463;50.988;11.332;2024-01-06T12:26:45;8.52;;;4.95;;
84820;SDS011;75463;50.988;11.332;2024-01-06T12:29:12;6.22;;;3.75;;
84820;SDS011;75463;50.988;11.332;2024-01-06T12:31:38;6.75;;;3.60;;
84820;SDS011;75463;50.988;11.332;2024-01-06T12:34:04;4.85;;;2.10;;
84820;SDS011;75463;50.988;11.332;2024-01-06T12:36:30;4.25;;;2.42;;
84820;SDS011;75463;50.988;11.332;2024-01-06T12:38:56;7.20;;;3.78;;
84820;SDS011;75463;50.988;11.332;2024-01-06T12:41:23;7.15;;;2.60;;
84820;SDS011;75463;50.988;11.332;2024-01-06T12:43:49;6.43;;;2.40;;
84820;SDS011;75463;50.988;11.332;2024-01-06T12:46:14;5.60;;;2.80;;
84820;SDS011;75463;50.988;11.332;2024-01-06T12:48:40;5.40;;;3.20;;
84820;SDS011;75463;50.988;11.332;2024-01-06T12:51:06;4.72;;;2.80;;
84820;SDS011;75463;50.988;11.332;2024-01-06T12:53:32;3.13;;;2.72;;
84820;SDS011;75463;50.988;11.332;2024-01-06T12:55:57;7.60;;;3.25;;
84820;SDS011;75463;50.988;11.332;2024-01-06T12:58:23;3.55;;;2.72;;
84820;SDS011;75463;50.988;11.332;2024-01-06T13:00:48;9.20;;;3.60;;
84820;SDS011;75463;50.988;11.332;2024-01-06T13:03:14;6.38;;;3.03;;
84820;SDS011;75463;50.988;11.332;2024-01-06T13:05:39;4.90;;;2.85;;
84820;SDS011;75463;50.988;11.332;2024-01-06T13:08:05;4.38;;;2.63;;
84820;SDS011;75463;50.988;11.332;2024-01-06T13:10:30;5.82;;;3.28;;
84820;SDS011;75463;50.988;11.332;2024-01-06T13:12:56;5.50;;;3.78;;
84820;SDS011;75463;50.988;11.332;2024-01-06T13:15:21;6.18;;;3.25;;
84820;SDS011;75463;50.988;11.332;2024-01-06T13:17:47;8.75;;;3.13;;
84820;SDS011;75463;50.988;11.332;2024-01-06T13:20:13;4.70;;;3.17;;
84820;SDS011;75463;50.988;11.332;2024-01-06T13:22:41;9.60;;;3.47;;
84820;SDS011;75463;50.988;11.332;2024-01-06T13:25:06;4.55;;;2.67;;
84820;SDS011;75463;50.988;11.332;2024-01-06T13:27:33;7.28;;;3.33;;
84820;SDS011;75463;50.988;11.332;2024-01-06T13:29:59;18.50;;;3.60;;
84820;SDS011;75463;50.988;11.332;2024-01-06T13:32:24;6.22;;;3.17;;
84820;SDS011;75463;50.988;11.332;2024-01-06T13:34:52;8.43;;;4.10;;
84820;SDS011;75463;50.988;11.332;2024-01-06T13:37:26;6.10;;;4.35;;
84820;SDS011;75463;50.988;11.332;2024-01-06T13:39:52;9.25;;;3.80;;
84820;SDS011;75463;50.988;11.332;2024-01-06T13:42:18;6.25;;;3.35;;
84820;SDS011;75463;50.988;11.332;2024-01-06T13:44:43;8.35;;;4.05;;
84820;SDS011;75463;50.988;11.332;2024-01-06T13:47:09;7.63;;;3.42;;
84820;SDS011;75463;50.988;11.332;2024-01-06T13:49:34;3.70;;;3.20;;
84820;SDS011;75463;50.988;11.332;2024-01-06T13:51:59;5.10;;;3.92;;
84820;SDS011;75463;50.988;11.332;2024-01-06T13:54:26;6.10;;;3.75;;
84820;SDS011;75463;50.988;11.332;2024-01-06T13:56:51;6.05;;;3.85;;
84820;SDS011;75463;50.988;11.332;2024-01-06T13:59:19;6.55;;;3.97;;
84820;SDS011;75463;50.988;11.332;2024-01-06T14:01:44;7.85;;;3.75;;
84820;SDS011;75463;50.988;11.332;2024-01-06T14:04:10;8.48;;;4.32;;
84820;SDS011;75463;50.988;11.332;2024-01-06T14:06:36;5.70;;;3.38;;
84820;SDS011;75463;50.988;11.332;2024-01-06T14:09:01;7.55;;;3.88;;
84820;SDS011;75463;50.988;11.332;2024-01-06T14:11:27;6.03;;;3.58;;
84820;SDS011;75463;50.988;11.332;2024-01-06T14:13:52;7.65;;;4.15;;
84820;SDS011;75463;50.988;11.332;2024-01-06T14:16:18;7.13;;;3.83;;
84820;SDS011;75463;50.988;11.332;2024-01-06T14:18:44;8.27;;;3.28;;
84820;SDS011;75463;50.988;11.332;2024-01-06T14:21:10;7.57;;;3.75;;
84820;SDS011;75463;50.988;11.332;2024-01-06T14:23:36;6.75;;;3.60;;
84820;SDS011;75463;50.988;11.332;2024-01-06T14:26:01;5.90;;;3.72;;
84820;SDS011;75463;50.988;11.332;2024-01-06T14:28:27;4.55;;;3.75;;
84820;SDS011;75463;50.988;11.332;2024-01-06T14:30:53;8.07;;;3.65;;
84820;SDS011;75463;50.988;11.332;2024-01-06T14:33:18;6.00;;;3.90;;